Aeroporto :
LOGIN :

Iscrizione | Disclaimer

   EN    FR    IT 

 










Sommario :    VFR   VFR Marginale   IFR   IFR Intensivo   IFR Molto Intensivo
Visibilità : 
Base nubi : 
>= 8 km
>= 3000ft
5 / 8 km
1000 / 3000 ft
1500m / 5 km
500 / 1000 ft
800 / 1500m
200 / 500 ft
< 800m
< 200 ft
Simboli :   Temporali  Nebbia  Neve Forte  Precipitazioni Forti  Vento > 20 kt
SIGMETs :   Varie  Temporali  Ghiacco  Turbolenza  Onda orograficha  Ceneri Vulcaniche






- Altitudine del aeroporto : 121 ft
- Codice IATA : HUY


EGNJ - Humberside

ULTIMO METAR :
  • 290650Z AUTO 18004KT 140V230 9999 NCD 15/06 Q1031

METARs OBSOLETI :
  • 290620Z AUTO 21003KT 9999 NCD 13/06 Q1031
  • 290550Z AUTO VRB02KT 9999 NCD 13/06 Q1031
  • 290520Z AUTO 08001KT 9999 NCD 12/06 Q1031
  • 290450Z AUTO VRB01KT 9999 NCD 10/06 Q1031
  • 290420Z AUTO 00000KT 9999 NCD 09/05 Q1031

TAF TAF EGNJ
Valido dal 29 a 03 ore il 29 a 12 ore UTC


290156Z 2903/2912 14007KT CAVOK
PROB30
TEMPO 2903/2907 8000
ATIS : +44 1652 682 020



MetMap, La meteo Aeronautica in un colpo d'occhio ! - Copyright ORBIFLY Dicembre 2007 - Disclaimer

ORBIFLY MET'MAP TEAM :

Programmazione e sviluppo : Alexandra Zaïnal
Concezione : Baudouin d'Aumeries
Aiuto per la programmazione : Marc-Olivier Méhu
Supporto tecnico e logistico : Manuel Goepfert
Aiuto per la traduzione : Arnaldo La Scala

Contatto : metmap@orbifly.com




FONTI E CREDITI :

   NOAA